createdAt,value
2023-03-11T00:04:06.332Z,95.29
2023-03-11T00:08:06.294Z,95.45
2023-03-11T00:11:06.278Z,95.50
2023-03-11T00:25:06.128Z,95.25
2023-03-11T01:18:05.585Z,99.51
2023-03-11T01:22:05.549Z,99.09
2023-03-11T01:33:05.441Z,97.17
2023-03-11T01:35:05.662Z,98.15
2023-03-11T01:36:05.464Z,97.94
2023-03-11T01:37:05.410Z,98.05
2023-03-11T01:38:05.380Z,98.05
2023-03-11T06:17:33.561Z,99.99
2023-03-11T06:30:33.237Z,99.99
2023-03-11T06:31:33.259Z,99.99
2023-03-11T06:32:33.257Z,99.99
2023-03-11T06:33:33.189Z,99.99
2023-03-11T06:34:33.178Z,99.99
2023-03-11T06:35:33.232Z,99.99
2023-03-11T06:36:33.355Z,99.99
2023-03-11T06:37:33.164Z,99.79
2023-03-11T06:38:33.370Z,98.66
2023-03-11T06:39:33.140Z,97.32
2023-03-11T06:40:33.320Z,95.98
2023-03-11T06:41:33.119Z,94.69
2023-03-11T06:42:33.096Z,93.65
2023-03-11T06:43:33.076Z,92.88
2023-03-11T06:44:33.091Z,91.65
2023-03-11T06:45:33.157Z,90.33
2023-03-11T06:46:33.068Z,89.04
2023-03-11T06:47:33.040Z,88.07
2023-03-11T06:48:33.040Z,85.47
2023-03-11T06:49:33.016Z,85.21
2023-03-11T06:50:33.032Z,84.72
2023-03-11T06:51:32.996Z,85.05
2023-03-11T06:52:32.993Z,86.23
2023-03-11T06:53:33.175Z,87.45
2023-03-11T06:54:33.204Z,88.43
2023-03-11T06:55:32.960Z,89.41
2023-03-11T06:56:32.959Z,90.35
2023-03-11T06:57:32.939Z,91.11
2023-03-11T06:58:32.942Z,91.89
2023-03-11T06:59:32.911Z,92.55
2023-03-11T07:00:32.914Z,93.18
2023-03-11T07:01:38.900Z,93.81
2023-03-11T07:02:32.896Z,94.37
2023-03-11T07:03:32.880Z,94.68
2023-03-11T07:04:32.869Z,94.85
2023-03-11T07:05:32.866Z,94.80
2023-03-11T07:06:32.850Z,94.40
2023-03-11T07:07:32.837Z,93.65
2023-03-11T07:08:38.840Z,91.51
2023-03-11T07:09:32.829Z,89.27
2023-03-11T07:10:32.850Z,85.88
2023-03-11T07:11:32.793Z,84.04
2023-03-11T07:12:32.806Z,81.96
2023-03-11T07:13:32.769Z,78.93
2023-03-11T07:14:32.773Z,77.58
2023-03-11T07:15:32.749Z,75.87
2023-03-11T07:16:32.787Z,75.15
2023-03-11T07:17:32.755Z,74.29
2023-03-11T07:18:32.728Z,73.26
2023-03-11T07:19:32.710Z,73.40
2023-03-11T07:20:32.711Z,73.36
2023-03-11T07:21:32.691Z,72.71
2023-03-11T07:22:32.696Z,70.59
2023-03-11T07:23:32.666Z,69.29
2023-03-11T07:24:38.679Z,67.69
2023-03-11T07:25:32.663Z,65.91
2023-03-11T07:26:32.678Z,67.07
2023-03-11T07:27:32.626Z,67.14
2023-03-11T07:28:32.630Z,65.81
2023-03-11T07:29:32.604Z,64.45
2023-03-11T07:30:32.611Z,64.86
2023-03-11T07:31:32.664Z,66.46
2023-03-11T07:32:32.640Z,65.94
2023-03-11T07:33:34.249Z,65.81
2023-03-11T07:34:32.575Z,64.89
2023-03-11T07:35:32.616Z,64.99
2023-03-11T07:36:32.549Z,64.49
2023-03-11T07:37:32.539Z,64.22
2023-03-11T07:38:32.537Z,62.28
2023-03-11T07:39:32.500Z,61.82
2023-03-11T07:40:32.504Z,60.79
2023-03-11T07:41:32.477Z,60.66
2023-03-11T07:42:32.502Z,60.76
2023-03-11T07:43:32.467Z,59.97
2023-03-11T07:44:32.452Z,61.07
2023-03-11T07:45:32.457Z,60.49
2023-03-11T07:46:32.509Z,61.18
2023-03-11T07:47:32.433Z,63.47
2023-03-11T07:48:32.626Z,63.22
2023-03-11T07:49:32.393Z,64.37
2023-03-11T07:50:38.412Z,64.18
2023-03-11T07:51:32.403Z,63.28
2023-03-11T07:52:32.376Z,61.38
2023-03-11T07:53:32.355Z,59.79
2023-03-11T07:54:32.357Z,59.92
2023-03-11T07:55:32.330Z,59.76
2023-03-11T07:56:32.339Z,59.08
2023-03-11T07:57:32.308Z,62.02
2023-03-11T07:58:32.334Z,59.95
2023-03-11T07:59:32.282Z,59.08
2023-03-11T08:00:32.297Z,58.81
2023-03-11T08:01:38.273Z,57.51
2023-03-11T08:02:32.486Z,55.71
2023-03-11T08:03:32.504Z,57.26
2023-03-11T08:04:32.249Z,57.13
2023-03-11T08:05:32.230Z,56.67
2023-03-11T08:06:38.255Z,57.18
2023-03-11T08:07:32.211Z,58.61
2023-03-11T08:08:38.236Z,58.28
2023-03-11T08:09:32.181Z,57.16
2023-03-11T08:10:32.188Z,56.47
2023-03-11T08:11:32.173Z,58.41
2023-03-11T08:12:32.153Z,56.39
2023-03-11T08:13:32.141Z,56.72
2023-03-11T08:14:32.169Z,58.45
2023-03-11T08:15:32.134Z,58.50
2023-03-11T08:16:32.144Z,58.11
2023-03-11T08:17:32.093Z,53.67
2023-03-11T08:18:32.119Z,53.08
2023-03-11T08:19:32.078Z,53.52
2023-03-11T08:20:32.283Z,55.71
2023-03-11T08:21:32.593Z,54.87
2023-03-11T08:22:32.067Z,54.97
2023-03-11T08:23:38.037Z,56.14
2023-03-11T08:24:38.047Z,55.04
2023-03-11T08:25:32.014Z,54.63
2023-03-11T08:26:32.019Z,54.87
2023-03-11T08:27:31.994Z,55.68
2023-03-11T08:28:31.994Z,54.46
2023-03-11T08:29:38.004Z,54.74
2023-03-11T08:30:31.982Z,54.74
2023-03-11T08:31:32.055Z,55.90
2023-03-11T08:32:38.076Z,51.79
2023-03-11T08:33:31.962Z,54.23
2023-03-11T08:34:31.935Z,55.14
2023-03-11T08:35:31.902Z,54.33
2023-03-11T08:36:31.933Z,53.14
2023-03-11T08:37:32.091Z,50.97
2023-03-11T08:38:32.134Z,49.91
2023-03-11T08:39:31.926Z,49.38
2023-03-11T08:40:31.883Z,46.93
2023-03-11T08:41:31.844Z,47.13
2023-03-11T08:42:32.035Z,47.41
2023-03-11T08:43:31.833Z,46.33
2023-03-11T08:44:31.813Z,47.84
2023-03-11T08:45:31.843Z,47.92
2023-03-11T08:46:31.880Z,47.72
2023-03-11T08:48:14.624Z,46.69
2023-03-11T08:49:14.590Z,44.45
2023-03-11T08:50:14.595Z,45.73
2023-03-11T08:51:14.565Z,45.15
2023-03-11T08:52:14.564Z,45.76
2023-03-11T08:53:14.759Z,46.91
2023-03-11T08:54:20.744Z,48.18
2023-03-11T08:55:14.524Z,45.37
2023-03-11T08:56:14.515Z,46.05
2023-03-11T08:57:14.518Z,50.40
2023-03-11T08:58:14.504Z,49.93
2023-03-11T08:59:14.477Z,50.95
2023-03-11T09:00:14.476Z,52.14
2023-03-11T09:01:14.478Z,59.36
2023-03-11T09:02:14.453Z,57.60
2023-03-11T09:03:14.441Z,52.41
2023-03-11T09:04:14.453Z,50.72
2023-03-11T09:05:14.419Z,48.73
2023-03-11T09:06:14.529Z,46.54
2023-03-11T09:07:14.401Z,44.81
2023-03-11T09:08:14.582Z,43.06
2023-03-11T09:09:14.390Z,42.59
2023-03-11T09:10:14.367Z,42.65
2023-03-11T09:11:14.347Z,43.82
2023-03-11T09:12:14.346Z,46.71
2023-03-11T09:13:14.333Z,42.65
2023-03-11T09:14:14.325Z,42.85
2023-03-11T09:15:14.340Z,44.75
2023-03-11T09:16:14.378Z,44.91
2023-03-11T09:17:14.316Z,41.69
2023-03-11T09:18:14.296Z,42.77
2023-03-11T09:19:14.262Z,43.30
2023-03-11T09:20:14.316Z,46.96
2023-03-11T09:21:14.261Z,46.91
2023-03-11T09:22:14.251Z,45.84
2023-03-11T09:23:20.250Z,41.97
2023-03-11T09:24:14.216Z,39.55
2023-03-11T09:25:14.200Z,40.23
2023-03-11T09:26:14.203Z,44.39
2023-03-11T09:27:14.379Z,43.12
2023-03-11T09:28:14.377Z,42.73
2023-03-11T09:29:49.080Z,43.56
2023-03-11T09:30:48.844Z,41.79
2023-03-11T09:31:48.947Z,46.24
2023-03-11T09:32:48.916Z,41.04
2023-03-11T09:33:48.806Z,38.95
2023-03-11T09:34:48.816Z,45.59
2023-03-11T09:35:48.821Z,44.20
2023-03-11T09:37:27.505Z,42.11
2023-03-11T09:38:27.488Z,43.76
2023-03-11T09:39:27.451Z,39.04
2023-03-11T09:40:27.459Z,40.66
2023-03-11T09:41:27.431Z,38.92
2023-03-11T09:42:27.426Z,38.73
2023-03-11T09:43:27.405Z,42.31
2023-03-11T09:44:27.610Z,40.86
2023-03-11T09:45:27.395Z,40.80
2023-03-11T09:46:27.453Z,42.47
2023-03-11T09:47:27.374Z,45.43
2023-03-11T09:48:27.395Z,46.96
2023-03-11T09:49:27.361Z,48.65
2023-03-11T09:50:33.366Z,49.44
2023-03-11T09:51:27.320Z,52.19
2023-03-11T09:52:27.354Z,54.48
2023-03-11T09:53:33.510Z,53.92
2023-03-11T09:54:27.298Z,54.99
2023-03-11T09:55:33.496Z,55.07
2023-03-11T09:56:27.479Z,59.46
2023-03-11T09:57:27.273Z,58.77
2023-03-11T09:58:27.247Z,61.35
2023-03-11T09:59:27.241Z,60.66
2023-03-11T10:00:27.231Z,60.68
2023-03-11T10:01:27.210Z,63.38
2023-03-11T10:02:27.323Z,62.59
2023-03-11T10:03:27.388Z,64.00
2023-03-11T10:04:33.219Z,62.87
2023-03-11T10:05:27.412Z,64.66
2023-03-11T10:06:33.176Z,63.42
2023-03-11T10:07:27.141Z,61.96
2023-03-11T10:08:27.145Z,61.85
2023-03-11T10:09:27.127Z,61.00
2023-03-11T10:10:27.121Z,63.13
2023-03-11T10:11:27.105Z,58.23
2023-03-11T10:12:27.104Z,58.90
2023-03-11T10:14:11.856Z,61.96
2023-03-11T10:15:11.840Z,48.89
2023-03-11T10:16:05.892Z,44.96
2023-03-11T10:17:05.816Z,46.25
2023-03-11T10:18:05.791Z,41.00
2023-03-11T10:19:05.798Z,46.83
2023-03-11T10:20:05.816Z,40.39
2023-03-11T10:21:05.774Z,35.86
2023-03-11T10:22:05.767Z,36.21
2023-03-11T10:23:05.747Z,41.29
2023-03-11T10:24:05.738Z,34.04
2023-03-11T10:25:05.726Z,36.76
2023-03-11T10:26:05.913Z,40.43
2023-03-11T10:27:05.714Z,43.60
2023-03-11T10:28:05.893Z,43.10
2023-03-11T10:29:11.912Z,41.40
2023-03-11T10:30:05.875Z,41.08
2023-03-11T10:31:05.670Z,39.69
2023-03-11T10:32:05.652Z,39.53
2023-03-11T10:33:05.646Z,39.83
2023-03-11T10:34:05.642Z,37.56
2023-03-11T10:35:11.660Z,46.80
2023-03-11T10:36:11.782Z,36.05
2023-03-11T10:37:05.619Z,37.61
2023-03-11T10:38:11.594Z,39.34
2023-03-11T10:39:05.590Z,38.39
2023-03-11T10:40:05.566Z,39.74
2023-03-11T10:41:11.570Z,43.13
2023-03-11T10:42:05.558Z,40.75
2023-03-11T10:43:05.567Z,38.51
2023-03-11T10:44:05.526Z,42.43
2023-03-11T10:45:05.528Z,40.13
2023-03-11T10:46:05.735Z,34.80
2023-03-11T10:47:05.501Z,39.35
2023-03-11T10:48:05.479Z,34.00
2023-03-11T10:49:05.490Z,35.26
2023-03-11T10:50:05.666Z,43.24
2023-03-11T10:51:05.481Z,44.48
2023-03-11T10:52:05.444Z,42.57
2023-03-11T10:53:05.441Z,45.70
2023-03-11T10:54:05.439Z,45.17
2023-03-11T10:55:05.628Z,43.83
2023-03-11T10:56:05.401Z,48.78
2023-03-11T10:57:05.406Z,53.36
2023-03-11T10:58:05.384Z,50.10
2023-03-11T10:59:05.381Z,50.00
2023-03-11T11:00:05.368Z,52.71
2023-03-11T11:01:05.599Z,57.84
2023-03-11T11:02:05.350Z,55.07
2023-03-11T11:03:05.341Z,60.61
2023-03-11T11:04:05.385Z,57.04
2023-03-11T11:05:05.562Z,56.02
2023-03-11T11:06:05.304Z,52.38
2023-03-11T11:07:05.323Z,55.48
2023-03-11T11:08:05.276Z,54.27
2023-03-11T11:09:05.286Z,54.19
2023-03-11T11:10:05.259Z,58.49
2023-03-11T11:11:05.257Z,54.38
2023-03-11T11:12:05.467Z,55.65
2023-03-11T11:13:05.234Z,40.93
2023-03-11T11:14:05.429Z,39.18
2023-03-11T11:15:05.212Z,38.01
2023-03-11T11:16:05.199Z,37.01
2023-03-11T11:17:05.192Z,35.09
2023-03-11T11:18:05.172Z,37.98
2023-03-11T11:19:05.400Z,36.08
2023-03-11T11:20:05.357Z,36.60
2023-03-11T11:21:05.158Z,41.93
2023-03-11T11:22:05.138Z,38.86
2023-03-11T11:23:05.154Z,35.16
2023-03-11T11:24:05.122Z,38.28
2023-03-11T11:25:05.162Z,36.34
2023-03-11T11:26:05.098Z,31.37
2023-03-11T11:27:05.314Z,37.37
2023-03-11T11:28:05.080Z,34.69
2023-03-11T11:29:06.265Z,34.32
2023-03-11T11:30:11.059Z,39.59
2023-03-11T11:31:05.351Z,35.86
2023-03-11T11:32:05.234Z,40.56
2023-03-11T11:33:11.238Z,38.29
2023-03-11T11:34:05.013Z,38.39
2023-03-11T11:35:05.028Z,36.35
2023-03-11T11:36:04.990Z,36.11
2023-03-11T11:37:04.997Z,39.99
2023-03-11T11:38:04.969Z,39.17
2023-03-11T11:39:05.052Z,40.72
2023-03-11T11:40:04.952Z,38.89
2023-03-11T11:41:04.956Z,46.13
2023-03-11T11:42:04.937Z,47.80
2023-03-11T11:43:04.933Z,49.51
2023-03-11T11:44:04.908Z,51.21
2023-03-11T11:45:04.906Z,52.36
2023-03-11T11:46:04.930Z,51.26
2023-03-11T11:47:06.316Z,54.99
2023-03-11T11:48:04.881Z,53.69
2023-03-11T11:49:04.872Z,51.42
2023-03-11T11:50:04.846Z,54.17
2023-03-11T11:51:11.052Z,57.59
2023-03-11T11:52:04.834Z,56.25
2023-03-11T11:53:04.825Z,54.43
2023-03-11T11:54:04.802Z,59.03
2023-03-11T11:55:04.822Z,56.04
2023-03-11T11:56:04.789Z,53.87
2023-03-11T11:57:04.790Z,49.06
2023-03-11T11:58:04.782Z,51.37
2023-03-11T11:59:04.800Z,51.37
2023-03-11T12:00:05.192Z,49.34
2023-03-11T12:01:11.071Z,51.73
2023-03-11T12:02:04.772Z,50.94
2023-03-11T12:03:04.757Z,44.61
2023-03-11T12:04:04.765Z,41.94
2023-03-11T12:05:04.948Z,45.59
2023-03-11T12:06:04.714Z,45.76
2023-03-11T12:07:04.734Z,48.13
2023-03-11T12:08:04.684Z,42.61
2023-03-11T12:09:04.721Z,42.79
2023-03-11T12:10:21.444Z,40.20
2023-03-11T12:11:05.977Z,40.10
2023-03-11T12:12:04.684Z,41.20
2023-03-11T12:13:04.674Z,34.39
2023-03-11T12:14:04.658Z,38.26
2023-03-11T12:15:10.704Z,36.03
2023-03-11T12:16:04.835Z,37.90
2023-03-11T12:17:04.643Z,37.21
2023-03-11T12:18:04.627Z,38.83
2023-03-11T12:19:04.626Z,35.98
2023-03-11T12:20:04.596Z,36.42
2023-03-11T12:21:04.562Z,41.62
2023-03-11T12:22:04.590Z,40.01
2023-03-11T12:23:04.552Z,42.21
2023-03-11T12:24:04.551Z,32.70
2023-03-11T12:25:04.535Z,37.39
2023-03-11T12:26:04.749Z,36.93
2023-03-11T12:27:04.522Z,35.31
2023-03-11T12:28:04.711Z,32.08
2023-03-11T12:29:04.496Z,31.46
2023-03-11T12:30:04.503Z,30.67
2023-03-11T12:31:04.713Z,35.21
2023-03-11T12:32:06.758Z,34.58
2023-03-11T12:33:04.508Z,33.73
2023-03-11T12:34:10.478Z,35.63
2023-03-11T12:35:04.492Z,39.41
2023-03-11T12:36:04.517Z,38.86
2023-03-11T12:37:04.648Z,38.15
2023-03-11T12:38:10.467Z,36.16
2023-03-11T12:39:10.473Z,34.79
2023-03-11T12:40:04.375Z,36.25
2023-03-11T12:41:04.397Z,34.45
2023-03-11T12:42:04.470Z,36.33
2023-03-11T12:43:04.391Z,36.73
2023-03-11T12:44:04.561Z,38.56
2023-03-11T12:45:04.344Z,37.10
2023-03-11T12:46:04.358Z,39.13
2023-03-11T12:47:10.419Z,36.34
2023-03-11T12:48:04.514Z,43.32
2023-03-11T12:49:04.317Z,41.16
2023-03-11T12:50:04.301Z,43.09
2023-03-11T12:51:04.311Z,46.16
2023-03-11T12:52:04.336Z,41.65
2023-03-11T12:53:04.320Z,41.83
2023-03-11T12:54:10.300Z,39.61
2023-03-11T12:55:04.255Z,38.49
2023-03-11T12:56:04.240Z,35.81
2023-03-11T12:57:04.283Z,41.72
2023-03-11T12:58:04.628Z,35.61
2023-03-11T12:59:04.484Z,36.15
2023-03-11T13:00:10.231Z,36.19
2023-03-11T13:01:04.453Z,31.48
2023-03-11T13:02:04.285Z,30.31
2023-03-11T13:03:04.223Z,31.01
2023-03-11T13:04:04.174Z,33.11
2023-03-11T13:05:10.276Z,33.23
2023-03-11T13:06:04.132Z,35.57
2023-03-11T13:07:04.143Z,35.34
2023-03-11T13:08:04.127Z,36.10
2023-03-11T13:09:04.311Z,40.64
2023-03-11T13:10:45.406Z,44.25
2023-03-11T13:11:39.343Z,43.95
2023-03-11T13:12:39.326Z,40.67
2023-03-11T13:13:39.150Z,41.78
2023-03-11T13:14:39.139Z,41.27
2023-03-11T13:15:39.115Z,41.32
2023-03-11T13:16:39.213Z,41.33
2023-03-11T13:17:39.078Z,37.70
2023-03-11T13:18:39.057Z,39.47
2023-03-11T13:19:39.042Z,38.28
2023-03-11T13:20:39.312Z,42.37
2023-03-11T13:21:39.066Z,42.67
2023-03-11T13:22:39.027Z,40.27
2023-03-11T13:23:39.441Z,42.69
2023-03-11T13:24:38.992Z,40.44
2023-03-11T13:25:39.034Z,42.65
2023-03-11T13:26:39.006Z,43.87
2023-03-11T13:27:39.002Z,40.95
2023-03-11T13:28:38.972Z,39.16
2023-03-11T13:29:39.012Z,43.99
2023-03-11T13:30:38.968Z,41.91
2023-03-11T13:31:38.985Z,45.50
2023-03-11T13:32:38.964Z,47.30
2023-03-11T13:33:38.934Z,46.33
2023-03-11T13:34:38.917Z,51.15
2023-03-11T13:35:38.949Z,51.13
2023-03-11T13:36:44.904Z,49.62
2023-03-11T13:37:39.072Z,49.87
2023-03-11T13:38:45.101Z,48.82
2023-03-11T13:39:38.838Z,52.44
2023-03-11T13:40:38.845Z,48.16
2023-03-11T13:41:38.857Z,47.42
2023-03-11T13:42:38.829Z,47.72
2023-03-11T13:43:38.820Z,45.99
2023-03-11T13:44:38.785Z,49.54
2023-03-11T13:45:39.239Z,50.61
2023-03-11T13:46:38.818Z,46.71
2023-03-11T13:48:25.845Z,54.15
2023-03-11T13:49:27.951Z,50.05
2023-03-11T13:51:09.028Z,44.62
2023-03-11T13:52:15.055Z,47.59
2023-03-11T13:53:09.228Z,46.59
2023-03-11T13:54:09.201Z,47.71
2023-03-11T13:55:08.992Z,46.47
2023-03-11T13:56:08.990Z,46.56
2023-03-11T13:57:09.169Z,50.45
2023-03-11T13:58:09.168Z,50.80
2023-03-11T13:59:08.932Z,51.47
2023-03-11T14:00:09.007Z,48.28
2023-03-11T14:01:09.013Z,45.83
2023-03-11T14:02:08.946Z,46.47
2023-03-11T14:03:08.893Z,46.92
2023-03-11T14:04:08.944Z,49.68
2023-03-11T14:05:08.904Z,48.93
2023-03-11T14:06:09.081Z,48.77
2023-03-11T14:07:08.920Z,51.46
2023-03-11T14:08:08.870Z,54.12
2023-03-11T14:09:08.839Z,52.81
2023-03-11T14:10:08.884Z,55.38
2023-03-11T14:11:15.294Z,51.99
2023-03-11T14:12:08.820Z,50.97
2023-03-11T14:13:08.809Z,59.07
2023-03-11T14:14:08.816Z,57.30
2023-03-11T14:15:08.769Z,59.74
2023-03-11T14:16:14.910Z,57.56
2023-03-11T14:17:08.755Z,55.10
2023-03-11T14:18:08.755Z,54.35
2023-03-11T14:19:08.844Z,56.99
2023-03-11T14:20:08.839Z,53.02
2023-03-11T14:21:08.715Z,51.18
2023-03-11T14:22:08.714Z,54.05
2023-03-11T14:23:10.736Z,54.94
2023-03-11T14:24:08.691Z,51.85
2023-03-11T14:25:08.683Z,52.87
2023-03-11T14:26:08.689Z,50.21
2023-03-11T14:27:08.649Z,54.82
2023-03-11T14:28:14.694Z,50.72
2023-03-11T14:29:08.645Z,53.05
2023-03-11T14:30:08.650Z,55.48
2023-03-11T14:31:08.607Z,50.86
2023-03-11T14:32:08.596Z,51.98
2023-03-11T14:33:08.588Z,50.14
2023-03-11T14:34:08.619Z,51.37
2023-03-11T14:35:08.579Z,51.34
2023-03-11T14:36:08.593Z,52.88
2023-03-11T14:37:08.537Z,46.00
2023-03-11T14:38:08.546Z,48.88
2023-03-11T14:39:14.560Z,52.08
2023-03-11T14:40:08.589Z,48.82
2023-03-11T14:41:47.392Z,47.72
2023-03-11T14:42:47.396Z,50.08
2023-03-11T14:43:47.357Z,53.13
2023-03-11T14:44:47.598Z,55.02
2023-03-11T14:45:47.669Z,54.87
2023-03-11T14:46:47.367Z,49.30
2023-03-11T14:47:47.299Z,44.67
2023-03-11T14:48:53.569Z,47.09
2023-03-11T14:49:47.525Z,46.20
2023-03-11T14:50:47.313Z,50.46
2023-03-11T14:51:47.280Z,48.80
2023-03-11T14:52:47.292Z,48.07
2023-03-11T14:53:47.247Z,42.05
2023-03-11T14:54:47.261Z,43.04
2023-03-11T14:55:47.229Z,43.81
2023-03-11T14:57:30.451Z,49.01
2023-03-11T14:58:30.377Z,50.46
2023-03-11T14:59:30.354Z,49.67
2023-03-11T15:00:36.200Z,49.38
2023-03-11T15:01:30.259Z,49.90
2023-03-11T15:02:30.126Z,50.00
2023-03-11T15:03:30.153Z,49.69
2023-03-11T15:04:30.163Z,50.69
2023-03-11T15:05:30.139Z,53.46
2023-03-11T15:06:30.085Z,52.10
2023-03-11T15:07:30.589Z,48.82
2023-03-11T15:08:36.114Z,48.26
2023-03-11T15:09:30.262Z,48.30
2023-03-11T15:10:36.343Z,52.89
2023-03-11T15:11:30.066Z,49.90
2023-03-11T15:12:30.022Z,50.10
2023-03-11T15:13:30.048Z,49.41
2023-03-11T15:14:30.015Z,50.61
2023-03-11T15:15:30.004Z,48.98
2023-03-11T15:16:30.266Z,49.28
2023-03-11T15:17:37.356Z,54.79
2023-03-11T15:18:31.063Z,54.05
2023-03-11T15:19:30.144Z,54.02
2023-03-11T15:20:29.940Z,49.32
2023-03-11T15:21:30.068Z,52.80
2023-03-11T15:22:30.375Z,51.15
2023-03-11T15:23:30.347Z,48.70
2023-03-11T15:24:29.914Z,50.34
2023-03-11T15:25:29.891Z,52.59
2023-03-11T15:26:29.949Z,48.03
2023-03-11T15:27:29.892Z,52.97
2023-03-11T15:28:35.917Z,52.66
2023-03-11T15:30:16.751Z,50.64
2023-03-11T15:31:16.843Z,49.23
2023-03-11T15:32:16.925Z,51.40
2023-03-11T15:33:16.673Z,53.38
2023-03-11T15:34:16.882Z,52.97
2023-03-11T15:35:16.692Z,53.17
2023-03-11T15:36:16.620Z,51.14
2023-03-11T15:37:16.644Z,53.91
2023-03-11T15:38:16.641Z,55.59
2023-03-11T15:39:22.641Z,52.89
2023-03-11T15:40:16.605Z,51.55
2023-03-11T15:41:16.619Z,53.27
2023-03-11T15:42:16.576Z,52.35
2023-03-11T15:43:16.606Z,51.01
2023-03-11T15:44:16.578Z,55.71
2023-03-11T15:45:16.771Z,55.12
2023-03-11T15:46:16.658Z,54.10
2023-03-11T15:47:16.569Z,53.07
2023-03-11T15:48:22.563Z,57.08
2023-03-11T15:49:16.933Z,54.89
2023-03-11T15:50:24.180Z,50.09
2023-03-11T15:51:17.569Z,53.56
2023-03-11T15:52:22.551Z,56.23
2023-03-11T15:53:16.492Z,51.20
2023-03-11T15:54:16.453Z,51.40
2023-03-11T15:55:16.625Z,55.27
2023-03-11T15:56:22.432Z,52.66
2023-03-11T15:57:16.446Z,52.70
2023-03-11T15:58:22.542Z,53.04
2023-03-11T15:59:16.441Z,55.84
2023-03-11T16:00:16.408Z,58.34
2023-03-11T16:01:16.406Z,60.01
2023-03-11T16:02:16.350Z,56.95
2023-03-11T16:03:16.347Z,59.24
2023-03-11T16:04:16.447Z,61.61
2023-03-11T16:05:22.379Z,58.65
2023-03-11T16:06:16.803Z,58.44
2023-03-11T16:07:36.823Z,58.03
2023-03-11T16:08:17.372Z,61.13
2023-03-11T16:09:16.284Z,58.99
2023-03-11T16:10:16.283Z,59.19
2023-03-11T16:11:16.280Z,58.16
2023-03-11T16:12:22.303Z,57.03
2023-03-11T16:13:22.342Z,57.67
2023-03-11T16:14:16.217Z,60.74
2023-03-11T16:15:16.273Z,60.66
2023-03-11T16:16:16.281Z,60.87
2023-03-11T16:17:16.237Z,60.15
2023-03-11T16:18:16.190Z,60.26
2023-03-11T16:19:16.185Z,57.57
2023-03-11T16:20:16.174Z,58.42
2023-03-11T16:21:16.179Z,57.08
2023-03-11T16:22:16.372Z,60.52
2023-03-11T16:23:16.366Z,61.24
2023-03-11T16:24:16.204Z,61.37
2023-03-11T16:25:16.324Z,64.47
2023-03-11T16:26:17.151Z,62.82
2023-03-11T16:27:16.111Z,63.23
2023-03-11T16:28:16.101Z,64.78
2023-03-11T16:29:19.647Z,63.85
2023-03-11T16:30:16.085Z,62.75
2023-03-11T16:31:16.140Z,61.19
2023-03-11T16:32:16.321Z,61.84
2023-03-11T16:33:16.061Z,63.50
2023-03-11T16:34:16.041Z,63.50
2023-03-11T16:35:16.095Z,64.45
2023-03-11T16:36:16.032Z,64.45
2023-03-11T16:37:22.120Z,62.70
2023-03-11T16:38:16.059Z,62.90
2023-03-11T16:39:16.230Z,59.80
2023-03-11T16:40:16.223Z,62.28
2023-03-11T16:41:15.953Z,64.17
2023-03-11T16:42:16.332Z,63.25
2023-03-11T16:43:22.036Z,64.52
2023-03-11T16:44:16.192Z,63.58
2023-03-11T16:45:15.942Z,62.68
2023-03-11T16:46:15.959Z,64.27
2023-03-11T16:47:15.925Z,63.61
2023-03-11T16:48:15.901Z,66.85
2023-03-11T16:49:15.876Z,66.75
2023-03-11T16:50:15.894Z,65.51
2023-03-11T16:51:15.857Z,66.54
2023-03-11T16:52:15.933Z,66.65
2023-03-11T16:53:15.814Z,68.44
2023-03-11T16:54:16.021Z,69.27
2023-03-11T16:55:15.844Z,71.49
2023-03-11T16:56:15.857Z,68.06
2023-03-11T16:57:16.050Z,70.79
2023-03-11T16:58:15.812Z,68.92
2023-03-11T16:59:15.960Z,69.96
2023-03-11T17:00:15.775Z,69.34
2023-03-11T17:01:15.774Z,69.99
2023-03-11T17:02:15.985Z,70.20
2023-03-11T17:03:15.713Z,71.75
2023-03-11T17:04:15.765Z,73.35
2023-03-11T17:05:15.850Z,72.62
2023-03-11T17:06:15.718Z,75.04
2023-03-11T17:07:15.746Z,72.55
2023-03-11T17:08:15.920Z,72.65
2023-03-11T17:09:15.709Z,72.90
2023-03-11T17:10:15.940Z,72.90
2023-03-11T17:11:15.637Z,73.41
2023-03-11T17:12:15.844Z,73.62
2023-03-11T17:13:18.835Z,73.97
2023-03-11T17:14:16.970Z,73.97
2023-03-11T17:15:15.623Z,74.10
2023-03-11T17:16:15.680Z,74.42
2023-03-11T17:17:15.582Z,75.36
2023-03-11T17:18:15.870Z,75.39
2023-03-11T17:19:15.598Z,76.01
2023-03-11T17:20:15.601Z,75.81
2023-03-11T17:21:15.556Z,75.39
2023-03-11T17:22:15.609Z,75.32
2023-03-11T17:23:15.511Z,75.21
2023-03-11T17:24:15.519Z,75.95
2023-03-11T17:25:15.506Z,76.15
2023-03-11T17:26:17.795Z,74.90
2023-03-11T17:27:21.607Z,75.42
2023-03-11T17:28:15.469Z,75.32
2023-03-11T17:29:15.492Z,75.46
2023-03-11T17:30:24.276Z,75.87
2023-03-11T17:31:16.888Z,76.09
2023-03-11T17:32:17.210Z,75.56
2023-03-11T17:33:15.654Z,76.81
2023-03-11T17:34:15.428Z,76.50
2023-03-11T17:35:15.445Z,76.43
2023-03-11T17:36:15.418Z,76.43
2023-03-11T17:37:15.402Z,76.12
2023-03-11T17:38:16.606Z,77.51
2023-03-11T17:39:15.381Z,77.82
2023-03-11T17:40:15.364Z,78.21
2023-03-11T17:41:15.368Z,79.15
2023-03-11T17:42:15.342Z,79.15
2023-03-11T17:43:15.357Z,79.15
2023-03-11T17:44:15.306Z,79.15
2023-03-11T17:45:15.365Z,79.77
2023-03-11T17:46:21.434Z,80.64
2023-03-11T17:47:15.305Z,81.37
2023-03-11T17:48:15.287Z,82.31
2023-03-11T17:49:15.287Z,82.10
2023-03-11T17:50:15.272Z,83.88
2023-03-11T17:51:15.247Z,83.91
2023-03-11T17:52:15.247Z,85.69
2023-03-11T17:53:15.257Z,88.61
2023-03-11T17:54:15.228Z,88.51
2023-03-11T17:55:15.208Z,89.59
2023-03-11T17:56:15.227Z,89.69
2023-03-11T17:57:15.178Z,88.75
2023-03-11T17:58:15.219Z,88.44
2023-03-11T17:59:17.626Z,89.55
2023-03-11T18:00:15.322Z,89.86
2023-03-11T18:01:15.195Z,88.88
2023-03-11T18:02:15.249Z,89.20
2023-03-11T18:03:15.126Z,88.57
2023-03-11T18:04:15.168Z,88.47
2023-03-11T18:05:16.970Z,88.98
2023-03-11T18:06:15.089Z,89.23
2023-03-11T18:07:15.077Z,89.86
2023-03-11T18:08:15.100Z,90.95
2023-03-11T18:09:15.140Z,91.79
2023-03-11T18:11:18.224Z,94.81
2023-03-11T18:12:15.061Z,95.65
2023-03-11T18:13:15.091Z,95.96
2023-03-11T18:14:15.095Z,96.06
2023-03-11T21:17:13.461Z,99.99
2023-03-11T21:20:13.225Z,99.99
2023-03-11T21:22:13.471Z,99.99
2023-03-11T21:23:13.322Z,99.99
